Smoky Cape Lighthouse Sw Rocks, Australia
Current Conditions -  °F | °C
As of 4:00 PM on Saturday 29 Nov 2014 (Local Time) from YCFS Reporting Station
Clear Clear  
Wind Chill: 75°   Ceiling: Unl
Heat Index: 75°   Visibility: 6mi
Dew Point: 59°   Wind: 22mph
Humidity: 57%   Direction: 30°NNE
Pressure: 30"   Gusts: NA
Location:  30.92°S, 153.08°E
Report Text: YCFS 290500Z AUTO 03019KT 9999 // NCD 24/15 Q1016
Loading
Personal Weather Stations






























Interactive Weather Map New forecast layout! Learn more

10-Day Weather Forecast

Advertisements
Track Severe Weather on mobile